sensor_id;sensor_type;location;lat;lon;timestamp;P1;durP1;ratioP1;P2;durP2;ratioP2
45011;SDS011;63444;48.148;11.542;2023-05-27T00:00:30;8.07;;;6.10;;
45011;SDS011;63444;48.148;11.542;2023-05-27T00:02:58;7.90;;;6.17;;
45011;SDS011;63444;48.148;11.542;2023-05-27T00:05:25;7.27;;;5.97;;
45011;SDS011;63444;48.148;11.542;2023-05-27T00:07:51;8.83;;;6.40;;
45011;SDS011;63444;48.148;11.542;2023-05-27T00:10:16;8.80;;;6.17;;
45011;SDS011;63444;48.148;11.542;2023-05-27T00:12:42;7.23;;;6.07;;
45011;SDS011;63444;48.148;11.542;2023-05-27T00:15:08;8.47;;;6.30;;
45011;SDS011;63444;48.148;11.542;2023-05-27T00:17:34;8.37;;;6.07;;
45011;SDS011;63444;48.148;11.542;2023-05-27T00:20:00;8.73;;;6.73;;
45011;SDS011;63444;48.148;11.542;2023-05-27T00:22:32;9.60;;;6.97;;
45011;SDS011;63444;48.148;11.542;2023-05-27T00:24:59;7.27;;;5.77;;
45011;SDS011;63444;48.148;11.542;2023-05-27T00:27:25;7.60;;;5.77;;
45011;SDS011;63444;48.148;11.542;2023-05-27T00:29:50;8.90;;;6.80;;
45011;SDS011;63444;48.148;11.542;2023-05-27T00:32:16;7.30;;;5.63;;
45011;SDS011;63444;48.148;11.542;2023-05-27T00:34:42;9.20;;;6.60;;
45011;SDS011;63444;48.148;11.542;2023-05-27T00:37:07;7.73;;;6.57;;
45011;SDS011;63444;48.148;11.542;2023-05-27T00:39:33;9.03;;;6.50;;
45011;SDS011;63444;48.148;11.542;2023-05-27T00:41:59;9.43;;;6.57;;
45011;SDS011;63444;48.148;11.542;2023-05-27T00:44:25;9.90;;;6.33;;
45011;SDS011;63444;48.148;11.542;2023-05-27T00:46:51;7.47;;;6.30;;
45011;SDS011;63444;48.148;11.542;2023-05-27T00:49:17;10.47;;;7.10;;
45011;SDS011;63444;48.148;11.542;2023-05-27T00:51:43;9.03;;;6.23;;
45011;SDS011;63444;48.148;11.542;2023-05-27T00:54:08;8.90;;;6.60;;
45011;SDS011;63444;48.148;11.542;2023-05-27T00:56:35;8.30;;;6.40;;
45011;SDS011;63444;48.148;11.542;2023-05-27T00:59:02;9.13;;;6.47;;
45011;SDS011;63444;48.148;11.542;2023-05-27T01:01:28;8.43;;;6.50;;
45011;SDS011;63444;48.148;11.542;2023-05-27T01:03:54;8.83;;;6.70;;
45011;SDS011;63444;48.148;11.542;2023-05-27T01:06:30;10.37;;;6.77;;
45011;SDS011;63444;48.148;11.542;2023-05-27T01:12:05;8.97;;;6.40;;
45011;SDS011;63444;48.148;11.542;2023-05-27T01:14:40;8.53;;;6.87;;
45011;SDS011;63444;48.148;11.542;2023-05-27T01:17:10;9.07;;;7.10;;
45011;SDS011;63444;48.148;11.542;2023-05-27T01:19:40;9.57;;;6.63;;
45011;SDS011;63444;48.148;11.542;2023-05-27T01:22:07;8.47;;;6.27;;
45011;SDS011;63444;48.148;11.542;2023-05-27T01:24:37;10.03;;;6.83;;
45011;SDS011;63444;48.148;11.542;2023-05-27T01:27:03;10.07;;;7.10;;
45011;SDS011;63444;48.148;11.542;2023-05-27T01:29:29;9.20;;;6.50;;
45011;SDS011;63444;48.148;11.542;2023-05-27T01:32:01;7.53;;;6.47;;
45011;SDS011;63444;48.148;11.542;2023-05-27T01:34:37;7.20;;;6.50;;
45011;SDS011;63444;48.148;11.542;2023-05-27T01:37:09;9.60;;;6.87;;
45011;SDS011;63444;48.148;11.542;2023-05-27T01:39:38;7.77;;;6.33;;
45011;SDS011;63444;48.148;11.542;2023-05-27T01:42:05;10.37;;;7.47;;
45011;SDS011;63444;48.148;11.542;2023-05-27T01:44:32;10.40;;;6.57;;
45011;SDS011;63444;48.148;11.542;2023-05-27T01:46:59;9.73;;;6.57;;
45011;SDS011;63444;48.148;11.542;2023-05-27T01:49:25;9.77;;;6.90;;
45011;SDS011;63444;48.148;11.542;2023-05-27T01:51:52;10.90;;;6.90;;
45011;SDS011;63444;48.148;11.542;2023-05-27T01:54:18;9.10;;;6.63;;
45011;SDS011;63444;48.148;11.542;2023-05-27T01:56:43;12.13;;;7.37;;
45011;SDS011;63444;48.148;11.542;2023-05-27T01:59:09;9.67;;;6.93;;
45011;SDS011;63444;48.148;11.542;2023-05-27T02:01:34;8.20;;;6.53;;
45011;SDS011;63444;48.148;11.542;2023-05-27T02:04:01;8.00;;;6.37;;
45011;SDS011;63444;48.148;11.542;2023-05-27T02:06:26;9.60;;;6.80;;
45011;SDS011;63444;48.148;11.542;2023-05-27T02:08:52;9.70;;;6.83;;
45011;SDS011;63444;48.148;11.542;2023-05-27T02:11:17;7.87;;;6.60;;
45011;SDS011;63444;48.148;11.542;2023-05-27T02:13:43;9.43;;;7.10;;
45011;SDS011;63444;48.148;11.542;2023-05-27T02:16:08;8.17;;;6.37;;
45011;SDS011;63444;48.148;11.542;2023-05-27T02:18:37;9.63;;;7.57;;
45011;SDS011;63444;48.148;11.542;2023-05-27T02:21:04;9.97;;;6.73;;
45011;SDS011;63444;48.148;11.542;2023-05-27T02:23:31;8.63;;;6.73;;
45011;SDS011;63444;48.148;11.542;2023-05-27T02:26:01;9.13;;;6.50;;
45011;SDS011;63444;48.148;11.542;2023-05-27T02:28:27;8.10;;;6.63;;
45011;SDS011;63444;48.148;11.542;2023-05-27T02:30:52;7.97;;;6.67;;
45011;SDS011;63444;48.148;11.542;2023-05-27T02:33:18;8.47;;;6.70;;
45011;SDS011;63444;48.148;11.542;2023-05-27T02:35:44;7.27;;;6.57;;
45011;SDS011;63444;48.148;11.542;2023-05-27T02:38:10;11.07;;;6.60;;
45011;SDS011;63444;48.148;11.542;2023-05-27T02:40:36;8.93;;;6.40;;
45011;SDS011;63444;48.148;11.542;2023-05-27T02:43:02;8.70;;;6.47;;
45011;SDS011;63444;48.148;11.542;2023-05-27T02:45:27;12.10;;;7.60;;
45011;SDS011;63444;48.148;11.542;2023-05-27T02:47:53;8.17;;;6.90;;
45011;SDS011;63444;48.148;11.542;2023-05-27T02:50:20;10.23;;;6.93;;
45011;SDS011;63444;48.148;11.542;2023-05-27T02:52:46;8.03;;;6.77;;
45011;SDS011;63444;48.148;11.542;2023-05-27T02:55:11;8.90;;;6.87;;
45011;SDS011;63444;48.148;11.542;2023-05-27T02:57:37;9.03;;;6.57;;
45011;SDS011;63444;48.148;11.542;2023-05-27T03:00:03;11.13;;;6.83;;
45011;SDS011;63444;48.148;11.542;2023-05-27T03:02:29;9.20;;;6.87;;
45011;SDS011;63444;48.148;11.542;2023-05-27T03:04:55;9.53;;;6.93;;
45011;SDS011;63444;48.148;11.542;2023-05-27T03:07:21;7.70;;;6.63;;
45011;SDS011;63444;48.148;11.542;2023-05-27T03:09:47;7.87;;;6.57;;
45011;SDS011;63444;48.148;11.542;2023-05-27T03:12:13;10.53;;;6.63;;
45011;SDS011;63444;48.148;11.542;2023-05-27T03:14:38;12.30;;;7.03;;
45011;SDS011;63444;48.148;11.542;2023-05-27T03:17:04;8.73;;;6.47;;
45011;SDS011;63444;48.148;11.542;2023-05-27T03:19:30;9.63;;;7.50;;
45011;SDS011;63444;48.148;11.542;2023-05-27T03:21:55;9.57;;;6.80;;
45011;SDS011;63444;48.148;11.542;2023-05-27T03:24:21;8.43;;;6.30;;
45011;SDS011;63444;48.148;11.542;2023-05-27T03:26:48;9.83;;;6.60;;
45011;SDS011;63444;48.148;11.542;2023-05-27T03:29:13;9.77;;;6.30;;
45011;SDS011;63444;48.148;11.542;2023-05-27T03:31:40;10.53;;;6.50;;
45011;SDS011;63444;48.148;11.542;2023-05-27T03:34:06;11.70;;;7.17;;
45011;SDS011;63444;48.148;11.542;2023-05-27T03:36:32;11.53;;;6.97;;
45011;SDS011;63444;48.148;11.542;2023-05-27T03:39:00;8.67;;;6.73;;
45011;SDS011;63444;48.148;11.542;2023-05-27T03:41:25;11.03;;;7.07;;
45011;SDS011;63444;48.148;11.542;2023-05-27T03:43:51;9.00;;;7.03;;
45011;SDS011;63444;48.148;11.542;2023-05-27T03:46:17;10.77;;;6.60;;
45011;SDS011;63444;48.148;11.542;2023-05-27T03:48:42;9.43;;;6.80;;
45011;SDS011;63444;48.148;11.542;2023-05-27T03:51:08;10.03;;;6.67;;
45011;SDS011;63444;48.148;11.542;2023-05-27T03:53:33;8.23;;;6.87;;
45011;SDS011;63444;48.148;11.542;2023-05-27T03:56:00;10.10;;;7.00;;
45011;SDS011;63444;48.148;11.542;2023-05-27T03:58:26;10.70;;;6.97;;
45011;SDS011;63444;48.148;11.542;2023-05-27T04:00:51;14.43;;;6.53;;
45011;SDS011;63444;48.148;11.542;2023-05-27T04:03:17;7.50;;;6.70;;
45011;SDS011;63444;48.148;11.542;2023-05-27T04:05:42;9.27;;;7.17;;
45011;SDS011;63444;48.148;11.542;2023-05-27T04:08:08;7.77;;;5.93;;
45011;SDS011;63444;48.148;11.542;2023-05-27T04:10:33;8.67;;;6.90;;
45011;SDS011;63444;48.148;11.542;2023-05-27T04:12:59;8.47;;;6.30;;
45011;SDS011;63444;48.148;11.542;2023-05-27T04:15:24;8.20;;;6.37;;
45011;SDS011;63444;48.148;11.542;2023-05-27T04:17:51;7.53;;;6.40;;
45011;SDS011;63444;48.148;11.542;2023-05-27T04:20:16;8.63;;;6.80;;
45011;SDS011;63444;48.148;11.542;2023-05-27T04:22:42;7.53;;;6.17;;
45011;SDS011;63444;48.148;11.542;2023-05-27T04:25:09;8.27;;;6.47;;
45011;SDS011;63444;48.148;11.542;2023-05-27T04:27:34;7.87;;;6.47;;
45011;SDS011;63444;48.148;11.542;2023-05-27T04:30:01;9.17;;;6.60;;
45011;SDS011;63444;48.148;11.542;2023-05-27T04:32:33;9.13;;;6.57;;
45011;SDS011;63444;48.148;11.542;2023-05-27T04:35:03;10.03;;;6.97;;
45011;SDS011;63444;48.148;11.542;2023-05-27T04:37:30;8.30;;;6.00;;
45011;SDS011;63444;48.148;11.542;2023-05-27T04:39:55;8.30;;;5.97;;
45011;SDS011;63444;48.148;11.542;2023-05-27T04:42:22;8.70;;;6.57;;
45011;SDS011;63444;48.148;11.542;2023-05-27T04:44:48;7.33;;;6.10;;
45011;SDS011;63444;48.148;11.542;2023-05-27T04:47:14;8.47;;;6.50;;
45011;SDS011;63444;48.148;11.542;2023-05-27T04:49:41;9.30;;;6.33;;
45011;SDS011;63444;48.148;11.542;2023-05-27T04:52:07;11.93;;;6.57;;
45011;SDS011;63444;48.148;11.542;2023-05-27T04:54:32;8.23;;;6.53;;
45011;SDS011;63444;48.148;11.542;2023-05-27T04:56:59;7.70;;;6.07;;
45011;SDS011;63444;48.148;11.542;2023-05-27T04:59:24;8.37;;;6.20;;
45011;SDS011;63444;48.148;11.542;2023-05-27T05:02:00;6.43;;;5.77;;
45011;SDS011;63444;48.148;11.542;2023-05-27T05:04:38;6.97;;;5.60;;
45011;SDS011;63444;48.148;11.542;2023-05-27T05:07:05;9.20;;;6.10;;
45011;SDS011;63444;48.148;11.542;2023-05-27T05:09:32;8.20;;;5.90;;
45011;SDS011;63444;48.148;11.542;2023-05-27T05:11:58;9.63;;;6.70;;
45011;SDS011;63444;48.148;11.542;2023-05-27T05:14:24;8.63;;;5.87;;
45011;SDS011;63444;48.148;11.542;2023-05-27T05:16:49;7.93;;;6.43;;
45011;SDS011;63444;48.148;11.542;2023-05-27T05:19:15;8.77;;;6.00;;
45011;SDS011;63444;48.148;11.542;2023-05-27T05:21:40;9.97;;;6.10;;
45011;SDS011;63444;48.148;11.542;2023-05-27T05:24:06;8.03;;;6.50;;
45011;SDS011;63444;48.148;11.542;2023-05-27T05:26:32;7.63;;;5.70;;
45011;SDS011;63444;48.148;11.542;2023-05-27T05:28:58;10.47;;;6.40;;
45011;SDS011;63444;48.148;11.542;2023-05-27T05:31:23;8.93;;;5.70;;
45011;SDS011;63444;48.148;11.542;2023-05-27T05:33:49;9.30;;;6.20;;
45011;SDS011;63444;48.148;11.542;2023-05-27T05:36:14;7.50;;;5.70;;
45011;SDS011;63444;48.148;11.542;2023-05-27T05:38:40;9.17;;;6.03;;
45011;SDS011;63444;48.148;11.542;2023-05-27T05:41:06;8.13;;;5.77;;
45011;SDS011;63444;48.148;11.542;2023-05-27T05:43:31;7.07;;;5.60;;
45011;SDS011;63444;48.148;11.542;2023-05-27T05:45:57;9.40;;;5.80;;
45011;SDS011;63444;48.148;11.542;2023-05-27T05:48:24;8.37;;;5.40;;
45011;SDS011;63444;48.148;11.542;2023-05-27T05:50:50;7.10;;;5.33;;
45011;SDS011;63444;48.148;11.542;2023-05-27T05:53:15;8.40;;;5.67;;
45011;SDS011;63444;48.148;11.542;2023-05-27T05:55:41;7.20;;;4.90;;
45011;SDS011;63444;48.148;11.542;2023-05-27T05:58:06;10.77;;;6.00;;
45011;SDS011;63444;48.148;11.542;2023-05-27T06:00:32;8.43;;;5.90;;
45011;SDS011;63444;48.148;11.542;2023-05-27T06:02:58;7.10;;;5.37;;
45011;SDS011;63444;48.148;11.542;2023-05-27T06:05:23;8.73;;;5.67;;
45011;SDS011;63444;48.148;11.542;2023-05-27T06:07:51;7.10;;;4.83;;
45011;SDS011;63444;48.148;11.542;2023-05-27T06:10:17;9.17;;;5.30;;
45011;SDS011;63444;48.148;11.542;2023-05-27T06:12:43;9.70;;;5.00;;
45011;SDS011;63444;48.148;11.542;2023-05-27T06:15:08;6.57;;;4.40;;
45011;SDS011;63444;48.148;11.542;2023-05-27T06:17:34;8.97;;;5.73;;
45011;SDS011;63444;48.148;11.542;2023-05-27T06:20:00;8.60;;;5.40;;
45011;SDS011;63444;48.148;11.542;2023-05-27T06:22:25;8.10;;;5.37;;
45011;SDS011;63444;48.148;11.542;2023-05-27T06:24:51;9.50;;;5.73;;
45011;SDS011;63444;48.148;11.542;2023-05-27T06:27:16;10.43;;;5.60;;
45011;SDS011;63444;48.148;11.542;2023-05-27T06:29:42;10.33;;;4.83;;
45011;SDS011;63444;48.148;11.542;2023-05-27T06:32:09;8.37;;;4.77;;
45011;SDS011;63444;48.148;11.542;2023-05-27T06:34:34;6.93;;;4.57;;
45011;SDS011;63444;48.148;11.542;2023-05-27T06:37:00;10.10;;;5.70;;
45011;SDS011;63444;48.148;11.542;2023-05-27T06:39:26;8.47;;;4.77;;
45011;SDS011;63444;48.148;11.542;2023-05-27T06:41:51;9.30;;;4.90;;
45011;SDS011;63444;48.148;11.542;2023-05-27T06:44:17;5.37;;;4.10;;
45011;SDS011;63444;48.148;11.542;2023-05-27T06:46:42;9.83;;;4.93;;
45011;SDS011;63444;48.148;11.542;2023-05-27T06:49:08;9.47;;;5.33;;
45011;SDS011;63444;48.148;11.542;2023-05-27T06:51:33;8.07;;;4.57;;
45011;SDS011;63444;48.148;11.542;2023-05-27T06:54:00;7.87;;;4.67;;
45011;SDS011;63444;48.148;11.542;2023-05-27T06:56:25;8.70;;;4.53;;
45011;SDS011;63444;48.148;11.542;2023-05-27T06:58:51;8.93;;;4.57;;
45011;SDS011;63444;48.148;11.542;2023-05-27T07:01:17;6.97;;;4.50;;
45011;SDS011;63444;48.148;11.542;2023-05-27T07:03:42;7.80;;;4.37;;
45011;SDS011;63444;48.148;11.542;2023-05-27T07:06:08;8.13;;;4.47;;
45011;SDS011;63444;48.148;11.542;2023-05-27T07:08:34;9.73;;;4.90;;
45011;SDS011;63444;48.148;11.542;2023-05-27T07:10:59;8.27;;;4.50;;
45011;SDS011;63444;48.148;11.542;2023-05-27T07:13:25;8.10;;;4.10;;
45011;SDS011;63444;48.148;11.542;2023-05-27T07:15:50;7.20;;;3.80;;
45011;SDS011;63444;48.148;11.542;2023-05-27T07:18:16;9.45;;;4.32;;
45011;SDS011;63444;48.148;11.542;2023-05-27T07:20:42;8.63;;;4.32;;
45011;SDS011;63444;48.148;11.542;2023-05-27T07:23:07;9.68;;;4.72;;
45011;SDS011;63444;48.148;11.542;2023-05-27T07:25:34;7.88;;;4.43;;
45011;SDS011;63444;48.148;11.542;2023-05-27T07:27:59;8.27;;;4.20;;
45011;SDS011;63444;48.148;11.542;2023-05-27T07:30:25;7.25;;;3.80;;
45011;SDS011;63444;48.148;11.542;2023-05-27T07:32:51;8.93;;;4.20;;
45011;SDS011;63444;48.148;11.542;2023-05-27T07:35:16;9.63;;;4.45;;
45011;SDS011;63444;48.148;11.542;2023-05-27T07:37:42;11.05;;;4.93;;
45011;SDS011;63444;48.148;11.542;2023-05-27T07:40:08;6.55;;;3.70;;
45011;SDS011;63444;48.148;11.542;2023-05-27T07:42:34;6.20;;;3.95;;
45011;SDS011;63444;48.148;11.542;2023-05-27T07:44:59;13.63;;;4.85;;
45011;SDS011;63444;48.148;11.542;2023-05-27T07:47:27;9.82;;;3.95;;
45011;SDS011;63444;48.148;11.542;2023-05-27T07:49:52;7.60;;;3.90;;
45011;SDS011;63444;48.148;11.542;2023-05-27T07:52:18;8.95;;;4.28;;
45011;SDS011;63444;48.148;11.542;2023-05-27T07:54:43;9.20;;;4.47;;
45011;SDS011;63444;48.148;11.542;2023-05-27T07:57:09;6.15;;;3.70;;
45011;SDS011;63444;48.148;11.542;2023-05-27T07:59:35;7.32;;;3.75;;
45011;SDS011;63444;48.148;11.542;2023-05-27T08:02:00;11.20;;;4.32;;
45011;SDS011;63444;48.148;11.542;2023-05-27T08:04:26;11.88;;;4.95;;
45011;SDS011;63444;48.148;11.542;2023-05-27T08:06:51;10.38;;;4.95;;
45011;SDS011;63444;48.148;11.542;2023-05-27T08:09:17;8.75;;;4.50;;
45011;SDS011;63444;48.148;11.542;2023-05-27T08:11:43;12.45;;;5.00;;
45011;SDS011;63444;48.148;11.542;2023-05-27T08:14:09;11.90;;;5.22;;
45011;SDS011;63444;48.148;11.542;2023-05-27T08:16:34;8.00;;;4.60;;
45011;SDS011;63444;48.148;11.542;2023-05-27T08:19:00;9.65;;;4.40;;
45011;SDS011;63444;48.148;11.542;2023-05-27T08:21:26;7.25;;;3.65;;
45011;SDS011;63444;48.148;11.542;2023-05-27T08:23:51;7.35;;;4.25;;
45011;SDS011;63444;48.148;11.542;2023-05-27T08:26:17;9.90;;;4.70;;
45011;SDS011;63444;48.148;11.542;2023-05-27T08:28:43;9.48;;;4.68;;
45011;SDS011;63444;48.148;11.542;2023-05-27T08:31:08;8.88;;;4.35;;
45011;SDS011;63444;48.148;11.542;2023-05-27T08:33:34;9.52;;;3.83;;
45011;SDS011;63444;48.148;11.542;2023-05-27T08:35:59;8.18;;;4.20;;
45011;SDS011;63444;48.148;11.542;2023-05-27T08:38:25;10.77;;;4.80;;
45011;SDS011;63444;48.148;11.542;2023-05-27T08:40:50;9.00;;;4.45;;
45011;SDS011;63444;48.148;11.542;2023-05-27T08:43:17;11.50;;;4.88;;
45011;SDS011;63444;48.148;11.542;2023-05-27T08:45:43;11.57;;;4.30;;
45011;SDS011;63444;48.148;11.542;2023-05-27T08:48:09;8.50;;;3.80;;
45011;SDS011;63444;48.148;11.542;2023-05-27T08:50:38;8.65;;;3.92;;
45011;SDS011;63444;48.148;11.542;2023-05-27T08:53:03;9.93;;;4.57;;
45011;SDS011;63444;48.148;11.542;2023-05-27T08:55:30;9.55;;;4.65;;
45011;SDS011;63444;48.148;11.542;2023-05-27T08:57:57;7.63;;;4.13;;
45011;SDS011;63444;48.148;11.542;2023-05-27T09:00:24;8.70;;;5.13;;
45011;SDS011;63444;48.148;11.542;2023-05-27T09:02:51;8.60;;;4.68;;
45011;SDS011;63444;48.148;11.542;2023-05-27T09:05:16;8.32;;;4.10;;
45011;SDS011;63444;48.148;11.542;2023-05-27T09:07:44;6.70;;;4.25;;
45011;SDS011;63444;48.148;11.542;2023-05-27T09:10:10;9.30;;;4.18;;
45011;SDS011;63444;48.148;11.542;2023-05-27T09:12:36;8.80;;;4.72;;
45011;SDS011;63444;48.148;11.542;2023-05-27T09:15:04;11.13;;;4.83;;
45011;SDS011;63444;48.148;11.542;2023-05-27T09:17:31;9.50;;;4.47;;
45011;SDS011;63444;48.148;11.542;2023-05-27T09:19:57;8.05;;;4.32;;
45011;SDS011;63444;48.148;11.542;2023-05-27T09:22:23;8.55;;;4.35;;
45011;SDS011;63444;48.148;11.542;2023-05-27T09:24:55;10.20;;;4.30;;
45011;SDS011;63444;48.148;11.542;2023-05-27T09:27:28;9.25;;;4.93;;
45011;SDS011;63444;48.148;11.542;2023-05-27T09:29:58;9.20;;;4.88;;
45011;SDS011;63444;48.148;11.542;2023-05-27T09:32:32;8.15;;;4.70;;
45011;SDS011;63444;48.148;11.542;2023-05-27T09:34:58;6.60;;;3.83;;
45011;SDS011;63444;48.148;11.542;2023-05-27T09:37:28;8.30;;;4.38;;
45011;SDS011;63444;48.148;11.542;2023-05-27T09:39:59;8.32;;;4.18;;
45011;SDS011;63444;48.148;11.542;2023-05-27T09:42:38;7.63;;;4.18;;
45011;SDS011;63444;48.148;11.542;2023-05-27T09:45:05;7.40;;;4.30;;
45011;SDS011;63444;48.148;11.542;2023-05-27T09:47:35;8.07;;;5.55;;
45011;SDS011;63444;48.148;11.542;2023-05-27T09:50:04;8.65;;;4.68;;
45011;SDS011;63444;48.148;11.542;2023-05-27T09:52:31;7.18;;;4.15;;
45011;SDS011;63444;48.148;11.542;2023-05-27T09:54:57;8.25;;;4.45;;
45011;SDS011;63444;48.148;11.542;2023-05-27T09:57:23;6.95;;;4.05;;
45011;SDS011;63444;48.148;11.542;2023-05-27T09:59:49;5.45;;;3.75;;
45011;SDS011;63444;48.148;11.542;2023-05-27T10:02:17;7.50;;;4.53;;
45011;SDS011;63444;48.148;11.542;2023-05-27T10:04:44;7.28;;;4.50;;
45011;SDS011;63444;48.148;11.542;2023-05-27T10:07:13;5.60;;;3.90;;
45011;SDS011;63444;48.148;11.542;2023-05-27T10:09:41;9.63;;;3.97;;
45011;SDS011;63444;48.148;11.542;2023-05-27T10:12:07;7.18;;;4.53;;
45011;SDS011;63444;48.148;11.542;2023-05-27T10:14:34;9.25;;;4.50;;
45011;SDS011;63444;48.148;11.542;2023-05-27T10:17:00;8.85;;;4.30;;
45011;SDS011;63444;48.148;11.542;2023-05-27T10:19:25;5.85;;;4.32;;
45011;SDS011;63444;48.148;11.542;2023-05-27T10:21:52;8.02;;;3.85;;
45011;SDS011;63444;48.148;11.542;2023-05-27T10:24:18;11.73;;;4.68;;
45011;SDS011;63444;48.148;11.542;2023-05-27T10:26:45;8.77;;;4.50;;
45011;SDS011;63444;48.148;11.542;2023-05-27T10:29:13;7.85;;;4.07;;
45011;SDS011;63444;48.148;11.542;2023-05-27T10:31:44;9.05;;;4.57;;
45011;SDS011;63444;48.148;11.542;2023-05-27T10:34:10;8.70;;;4.60;;
45011;SDS011;63444;48.148;11.542;2023-05-27T10:36:43;7.95;;;4.85;;
45011;SDS011;63444;48.148;11.542;2023-05-27T10:49:34;8.45;;;4.85;;
45011;SDS011;63444;48.148;11.542;2023-05-27T10:52:07;10.68;;;4.72;;
45011;SDS011;63444;48.148;11.542;2023-05-27T10:54:37;6.75;;;3.85;;
45011;SDS011;63444;48.148;11.542;2023-05-27T10:57:24;6.13;;;4.15;;
45011;SDS011;63444;48.148;11.542;2023-05-27T10:59:50;7.55;;;4.00;;
45011;SDS011;63444;48.148;11.542;2023-05-27T11:02:20;8.50;;;4.38;;
45011;SDS011;63444;48.148;11.542;2023-05-27T11:04:48;5.25;;;4.15;;
45011;SDS011;63444;48.148;11.542;2023-05-27T11:07:17;6.47;;;4.40;;
45011;SDS011;63444;48.148;11.542;2023-05-27T11:09:44;8.73;;;5.10;;
45011;SDS011;63444;48.148;11.542;2023-05-27T11:12:13;8.10;;;4.32;;
45011;SDS011;63444;48.148;11.542;2023-05-27T11:14:53;6.28;;;4.30;;
45011;SDS011;63444;48.148;11.542;2023-05-27T11:17:23;9.82;;;4.32;;
45011;SDS011;63444;48.148;11.542;2023-05-27T11:19:50;7.57;;;4.80;;
45011;SDS011;63444;48.148;11.542;2023-05-27T11:22:17;7.43;;;4.38;;
45011;SDS011;63444;48.148;11.542;2023-05-27T11:24:44;8.45;;;4.38;;
45011;SDS011;63444;48.148;11.542;2023-05-27T11:27:20;7.03;;;4.72;;
45011;SDS011;63444;48.148;11.542;2023-05-27T11:29:49;9.63;;;4.50;;
45011;SDS011;63444;48.148;11.542;2023-05-27T11:32:16;10.85;;;4.80;;
45011;SDS011;63444;48.148;11.542;2023-05-27T11:34:46;8.65;;;4.35;;
45011;SDS011;63444;48.148;11.542;2023-05-27T11:37:12;8.38;;;3.90;;
45011;SDS011;63444;48.148;11.542;2023-05-27T11:39:48;8.13;;;4.13;;
45011;SDS011;63444;48.148;11.542;2023-05-27T11:42:21;6.75;;;3.67;;
45011;SDS011;63444;48.148;11.542;2023-05-27T11:44:51;9.27;;;4.07;;
45011;SDS011;63444;48.148;11.542;2023-05-27T11:47:17;7.75;;;4.47;;
45011;SDS011;63444;48.148;11.542;2023-05-27T11:49:43;8.90;;;4.13;;
45011;SDS011;63444;48.148;11.542;2023-05-27T11:52:10;10.63;;;4.75;;
45011;SDS011;63444;48.148;11.542;2023-05-27T11:54:37;8.13;;;4.30;;
45011;SDS011;63444;48.148;11.542;2023-05-27T11:57:03;13.52;;;4.88;;
45011;SDS011;63444;48.148;11.542;2023-05-27T11:59:31;5.90;;;4.07;;
45011;SDS011;63444;48.148;11.542;2023-05-27T12:01:58;6.18;;;3.90;;
45011;SDS011;63444;48.148;11.542;2023-05-27T12:04:23;8.48;;;4.30;;
45011;SDS011;63444;48.148;11.542;2023-05-27T12:06:49;8.68;;;4.18;;
45011;SDS011;63444;48.148;11.542;2023-05-27T12:09:15;7.63;;;4.03;;
45011;SDS011;63444;48.148;11.542;2023-05-27T12:11:41;8.75;;;4.15;;
45011;SDS011;63444;48.148;11.542;2023-05-27T12:14:07;7.95;;;4.05;;
45011;SDS011;63444;48.148;11.542;2023-05-27T12:16:32;8.32;;;4.13;;
45011;SDS011;63444;48.148;11.542;2023-05-27T12:18:58;5.40;;;3.88;;
45011;SDS011;63444;48.148;11.542;2023-05-27T12:21:24;6.10;;;3.83;;
45011;SDS011;63444;48.148;11.542;2023-05-27T12:23:51;9.20;;;3.78;;
45011;SDS011;63444;48.148;11.542;2023-05-27T12:26:18;7.05;;;4.30;;
45011;SDS011;63444;48.148;11.542;2023-05-27T12:28:44;5.53;;;3.55;;
45011;SDS011;63444;48.148;11.542;2023-05-27T12:31:10;7.68;;;3.90;;
45011;SDS011;63444;48.148;11.542;2023-05-27T12:33:36;6.07;;;3.95;;
45011;SDS011;63444;48.148;11.542;2023-05-27T12:36:02;6.45;;;3.90;;
45011;SDS011;63444;48.148;11.542;2023-05-27T12:38:30;7.30;;;3.50;;
45011;SDS011;63444;48.148;11.542;2023-05-27T12:40:56;5.85;;;3.83;;
45011;SDS011;63444;48.148;11.542;2023-05-27T12:43:23;6.85;;;4.00;;
45011;SDS011;63444;48.148;11.542;2023-05-27T12:45:49;6.13;;;3.47;;
45011;SDS011;63444;48.148;11.542;2023-05-27T12:48:15;6.60;;;4.22;;
45011;SDS011;63444;48.148;11.542;2023-05-27T12:50:42;6.35;;;3.85;;
45011;SDS011;63444;48.148;11.542;2023-05-27T12:53:08;6.68;;;3.58;;
45011;SDS011;63444;48.148;11.542;2023-05-27T12:55:34;9.38;;;3.85;;
45011;SDS011;63444;48.148;11.542;2023-05-27T12:58:00;9.32;;;3.75;;
45011;SDS011;63444;48.148;11.542;2023-05-27T13:00:26;8.48;;;4.15;;
45011;SDS011;63444;48.148;11.542;2023-05-27T13:02:52;6.40;;;3.80;;
45011;SDS011;63444;48.148;11.542;2023-05-27T13:05:18;7.32;;;3.97;;
45011;SDS011;63444;48.148;11.542;2023-05-27T13:08:03;8.10;;;3.72;;
45011;SDS011;63444;48.148;11.542;2023-05-27T13:10:30;7.55;;;4.13;;
45011;SDS011;63444;48.148;11.542;2023-05-27T13:12:57;6.03;;;3.92;;
45011;SDS011;63444;48.148;11.542;2023-05-27T13:15:24;7.18;;;3.92;;
45011;SDS011;63444;48.148;11.542;2023-05-27T13:17:50;6.05;;;3.55;;
45011;SDS011;63444;48.148;11.542;2023-05-27T13:20:18;5.78;;;3.90;;
45011;SDS011;63444;48.148;11.542;2023-05-27T13:22:45;8.05;;;4.20;;
45011;SDS011;63444;48.148;11.542;2023-05-27T13:25:11;5.18;;;3.80;;
45011;SDS011;63444;48.148;11.542;2023-05-27T13:27:37;7.50;;;3.88;;
45011;SDS011;63444;48.148;11.542;2023-05-27T13:30:04;5.90;;;3.88;;
45011;SDS011;63444;48.148;11.542;2023-05-27T13:32:30;6.22;;;3.75;;
45011;SDS011;63444;48.148;11.542;2023-05-27T13:34:59;7.10;;;3.80;;
45011;SDS011;63444;48.148;11.542;2023-05-27T13:37:26;5.88;;;3.85;;
45011;SDS011;63444;48.148;11.542;2023-05-27T13:39:51;9.27;;;3.90;;
45011;SDS011;63444;48.148;11.542;2023-05-27T13:42:17;6.57;;;3.55;;
45011;SDS011;63444;48.148;11.542;2023-05-27T13:44:42;7.05;;;3.83;;
45011;SDS011;63444;48.148;11.542;2023-05-27T13:47:08;9.52;;;4.22;;
45011;SDS011;63444;48.148;11.542;2023-05-27T13:49:34;5.53;;;3.33;;
45011;SDS011;63444;48.148;11.542;2023-05-27T13:52:01;5.03;;;3.42;;
45011;SDS011;63444;48.148;11.542;2023-05-27T13:54:27;5.47;;;3.70;;
45011;SDS011;63444;48.148;11.542;2023-05-27T13:56:54;9.82;;;4.20;;
45011;SDS011;63444;48.148;11.542;2023-05-27T14:01:55;6.20;;;3.65;;
45011;SDS011;63444;48.148;11.542;2023-05-27T14:04:21;7.90;;;3.83;;
45011;SDS011;63444;48.148;11.542;2023-05-27T14:06:47;8.35;;;3.88;;
45011;SDS011;63444;48.148;11.542;2023-05-27T14:09:13;5.88;;;3.50;;
45011;SDS011;63444;48.148;11.542;2023-05-27T14:11:40;7.00;;;3.67;;
45011;SDS011;63444;48.148;11.542;2023-05-27T14:14:06;8.27;;;4.00;;
45011;SDS011;63444;48.148;11.542;2023-05-27T14:16:32;6.70;;;3.70;;
45011;SDS011;63444;48.148;11.542;2023-05-27T14:18:58;6.05;;;3.47;;
45011;SDS011;63444;48.148;11.542;2023-05-27T14:21:23;10.65;;;4.65;;
45011;SDS011;63444;48.148;11.542;2023-05-27T14:23:49;11.45;;;3.85;;
45011;SDS011;63444;48.148;11.542;2023-05-27T14:26:15;6.05;;;3.60;;
45011;SDS011;63444;48.148;11.542;2023-05-27T14:28:41;10.30;;;3.95;;
45011;SDS011;63444;48.148;11.542;2023-05-27T14:31:07;6.63;;;3.53;;
45011;SDS011;63444;48.148;11.542;2023-05-27T14:33:33;6.13;;;3.63;;
45011;SDS011;63444;48.148;11.542;2023-05-27T14:35:59;7.43;;;3.42;;
45011;SDS011;63444;48.148;11.542;2023-05-27T14:38:25;7.65;;;3.72;;
45011;SDS011;63444;48.148;11.542;2023-05-27T14:40:50;6.50;;;3.75;;
45011;SDS011;63444;48.148;11.542;2023-05-27T14:43:17;7.45;;;4.10;;
45011;SDS011;63444;48.148;11.542;2023-05-27T14:45:43;7.20;;;3.80;;